^^
Station Historical Data
Daily Summary for March 24, 2017 Units:  English    Metric   Both
« Previous Day
Next Day »
Daily Weekly Monthly Yearly Custom
  High: Low: Average:
Temperature: 51.8 °F 30.4 °F 41.4 °F
Dew Point: 36.9 °F 18.2 °F 27.8 °F
Humidity: 74% 50% 59%
Wind Speed: 8.0mph 0.0mph 2.5mph
Wind Gust: 17.0mph - -
Wind- - SSW
Pressure: 30.57 in 30.13 in -
Precipitation: 0.03 in    
Historical Graphs
 
 
Tabular Data for March 24, 2017
Time Temperature Dew Point Pressure Wind Wind Speed Wind Gust Humidity Rainfall Rate (Hourly) Conditions
00:00 32.6 °F 20.7 °F 30.56 in Calm   1.0 mph 61% 0.00 in CLR
00:15 32.0 °F 22.6 °F 30.57 in Calm   2.0 mph 68% 0.00 in CLR
00:30 32.4 °F 23.0 °F 30.57 in Calm   3.0 mph 68% 0.00 in CLR
00:45 32.8 °F 23.1 °F 30.56 in Calm   3.0 mph 67% 0.00 in CLR
01:00 33.6 °F 23.0 °F 30.55 in Calm   2.0 mph 65% 0.00 in CLR
02:15 30.8 °F 21.5 °F 30.55 in Calm   1.0 mph 68% 0.00 in CLR
02:30 30.9 °F 22.6 °F 30.55 in Calm     71% 0.00 in CLR
02:45 30.4 °F 23.1 °F 30.55 in Calm   1.0 mph 74% 0.00 in CLR
03:00 30.8 °F 23.2 °F 30.54 in Calm   1.0 mph 73% 0.00 in CLR
03:15 31.9 °F 23.3 °F 30.53 in Calm     70% 0.00 in CLR
03:30 31.5 °F 22.5 °F 30.52 in Calm   1.0 mph 69% 0.00 in CLR
03:45 32.4 °F 20.4 °F 30.52 in Calm   3.0 mph 61% 0.00 in CLR
04:00 33.2 °F 18.3 °F 30.50 in SSE 1.0 mph 7.0 mph 54% 0.00 in CLR
04:15 33.4 °F 18.9 °F 30.50 in Calm   4.0 mph 55% 0.00 in CLR
04:30 33.8 °F 19.3 °F 30.49 in Calm   5.0 mph 55% 0.00 in CLR
04:45 34.2 °F 18.8 °F 30.49 in South 1.0 mph 4.0 mph 53% 0.00 in CLR
05:00 34.2 °F 18.4 °F 30.49 in Calm   5.0 mph 52% 0.00 in CLR
05:15 34.5 °F 18.2 °F 30.51 in SSW 2.0 mph 6.0 mph 51% 0.00 in CLR
05:30 34.4 °F 18.6 °F 30.51 in Calm   3.0 mph 52% 0.00 in CLR
05:45 34.4 °F 19.0 °F 30.51 in South 2.0 mph 4.0 mph 53% 0.00 in CLR
06:00 34.2 °F 19.3 °F 30.50 in SSE 2.0 mph 5.0 mph 54% 0.00 in CLR
06:15 34.2 °F 19.7 °F 30.50 in South 2.0 mph 8.0 mph 55% 0.00 in BKN
06:30 34.2 °F 20.1 °F 30.50 in SW 2.0 mph 7.0 mph 56% 0.00 in BKN
06:45 34.0 °F 21.2 °F 30.50 in SW 2.0 mph 6.0 mph 59% 0.00 in BKN
07:00 33.8 °F 21.4 °F 30.50 in SSW 5.0 mph 8.0 mph 60% 0.00 in BKN
07:15 34.0 °F 21.6 °F 30.50 in South 1.0 mph 8.0 mph 60% 0.00 in BKN
07:30 34.3 °F 21.8 °F 30.49 in SSW 2.0 mph 7.0 mph 60% 0.00 in BKN
07:45 34.5 °F 22.4 °F 30.48 in South 2.0 mph 9.0 mph 61% 0.00 in BKN
08:00 34.7 °F 22.6 °F 30.48 in SSW 3.0 mph 12.0 mph 61% 0.00 in BKN
08:15 35.1 °F 22.6 °F 30.47 in South 5.0 mph 12.0 mph 60% 0.00 in BKN
08:30 35.3 °F 22.8 °F 30.47 in South 5.0 mph 13.0 mph 60% 0.00 in BKN
08:45 35.9 °F 23.4 °F 30.47 in SSW 2.0 mph 12.0 mph 60% 0.00 in BKN
09:00 36.9 °F 23.1 °F 30.47 in SSW 7.0 mph 12.0 mph 57% 0.00 in BKN
09:15 37.9 °F 23.1 °F 30.47 in SW 5.0 mph 15.0 mph 55% 0.00 in SCT
09:30 38.1 °F 23.8 °F 30.47 in SW 6.0 mph 16.0 mph 56% 0.00 in SCT
09:45 38.4 °F 24.5 °F 30.46 in SSW 7.0 mph 14.0 mph 57% 0.00 in SCT
10:00 39.2 °F 25.2 °F 30.45 in SSW 6.0 mph 13.0 mph 57% 0.00 in SCT
10:15 40.4 °F 26.4 °F 30.44 in SSW 2.0 mph 14.0 mph 57% 0.00 in SCT
10:30 41.5 °F 24.7 °F 30.44 in SW 8.0 mph 15.0 mph 51% 0.00 in SCT
10:45 40.9 °F 24.6 °F 30.43 in SSW 6.0 mph 15.0 mph 52% 0.00 in SCT
11:00 40.8 °F 25.0 °F 30.43 in SSW 5.0 mph 12.0 mph 53% 0.00 in SCT
11:15 40.8 °F 25.5 °F 30.43 in SW 3.0 mph 17.0 mph 54% 0.00 in SCT
11:30 41.3 °F 25.9 °F 30.42 in SSW 6.0 mph 12.0 mph 54% 0.00 in SCT
11:45 41.8 °F 26.8 °F 30.41 in SSW 3.0 mph 14.0 mph 55% 0.00 in SCT
12:00 42.4 °F 25.5 °F 30.39 in SSW 6.0 mph 15.0 mph 51% 0.00 in SCT
12:15 42.8 °F 25.4 °F 30.37 in SW 7.0 mph 16.0 mph 50% 0.00 in -RA
12:30 42.6 °F 25.2 °F 30.36 in SSW 7.0 mph 17.0 mph 50% 0.00 in -RA
12:45 42.5 °F 27.5 °F 30.36 in SW 2.0 mph 12.0 mph 55% 0.00 in -RA
13:00 41.2 °F 30.3 °F 30.35 in SSW 2.0 mph 8.0 mph 65% 0.01 in -RA
13:15 41.0 °F 30.1 °F 30.32 in SSW 8.0 mph 15.0 mph 65% 0.01 in -RA
13:30 41.1 °F 31.0 °F 30.30 in South 6.0 mph 14.0 mph 67% 0.00 in -RA
13:45 40.7 °F 31.7 °F 30.30 in South 2.0 mph 15.0 mph 70% 0.01 in -RA
14:00 41.1 °F 31.3 °F 30.28 in South 3.0 mph 12.0 mph 68% 0.00 in -RA
14:15 41.7 °F 31.2 °F 30.27 in SSW 6.0 mph 13.0 mph 66% 0.00 in -RA
14:30 42.4 °F 31.5 °F 30.26 in SSW 2.0 mph 10.0 mph 65% 0.00 in -RA
14:45 43.1 °F 31.7 °F 30.25 in SSW 1.0 mph 10.0 mph 64% 0.00 in -RA
15:00 43.7 °F 31.5 °F 30.24 in South 3.0 mph 12.0 mph 62% 0.00 in -RA
15:15 45.3 °F 32.2 °F 30.22 in SW 2.0 mph 9.0 mph 60% 0.00 in BKN
15:30 46.8 °F 32.4 °F 30.21 in SSW 7.0 mph 14.0 mph 57% 0.00 in BKN
15:45 48.3 °F 31.9 °F 30.20 in SSW 8.0 mph 14.0 mph 53% 0.00 in BKN
16:00 49.3 °F 31.9 °F 30.19 in SSW 8.0 mph 16.0 mph 51% 0.00 in BKN
16:15 49.2 °F 32.3 °F 30.19 in SSW 3.0 mph 15.0 mph 52% 0.00 in SCT
16:30 49.2 °F 32.8 °F 30.18 in SW 5.0 mph 13.0 mph 53% 0.00 in SCT
16:45 49.7 °F 33.2 °F 30.17 in SSW 6.0 mph 9.0 mph 53% 0.00 in SCT
17:00 49.9 °F 33.4 °F 30.17 in WSW 3.0 mph 10.0 mph 53% 0.00 in SCT
17:15 49.7 °F 33.7 °F 30.17 in SSW 6.0 mph 9.0 mph 54% 0.00 in BKN
17:30 49.7 °F 33.7 °F 30.16 in SW 1.0 mph 4.0 mph 54% 0.00 in BKN
17:45 49.7 °F 34.2 °F 30.15 in SW 1.0 mph 4.0 mph 55% 0.00 in BKN
18:00 50.1 °F 33.6 °F 30.15 in Calm   1.0 mph 53% 0.00 in BKN
18:15 51.5 °F 34.5 °F 30.14 in SW 1.0 mph 3.0 mph 52% 0.00 in BKN
18:30 51.8 °F 34.2 °F 30.14 in South 1.0 mph 3.0 mph 51% 0.00 in BKN
18:45 51.5 °F 34.4 °F 30.13 in Calm   3.0 mph 52% 0.00 in BKN
19:00 50.2 °F 34.2 °F 30.13 in Calm   1.0 mph 54% 0.00 in BKN
19:15 48.9 °F 33.9 °F 30.13 in Calm   2.0 mph 56% 0.00 in CLR
19:30 49.0 °F 34.4 °F 30.14 in Calm   2.0 mph 57% 0.00 in CLR
19:45 49.2 °F 35.4 °F 30.14 in Calm   2.0 mph 59% 0.00 in CLR
20:00 48.5 °F 35.7 °F 30.15 in Calm   1.0 mph 61% 0.00 in CLR
20:15 48.1 °F 35.7 °F 30.16 in Calm     62% 0.00 in CLR
20:30 48.5 °F 36.1 °F 30.16 in Calm   1.0 mph 62% 0.00 in CLR
20:45 48.6 °F 36.5 °F 30.17 in Calm   1.0 mph 63% 0.00 in CLR
21:00 48.4 °F 36.8 °F 30.17 in Calm   2.0 mph 64% 0.00 in CLR
21:15 48.1 °F 36.9 °F 30.17 in SSW 1.0 mph 4.0 mph 65% 0.00 in CLR
21:45 49.4 °F 36.9 °F 30.17 in SSW 2.0 mph 7.0 mph 62% 0.00 in CLR
22:00 49.9 °F 36.6 °F 30.17 in SSW 1.0 mph 8.0 mph 60% 0.00 in CLR
22:15 49.8 °F 36.1 °F 30.16 in SSW 3.0 mph 9.0 mph 59% 0.00 in CLR
22:45 50.4 °F 35.7 °F 30.15 in South 5.0 mph 10.0 mph 57% 0.00 in CLR
23:00 50.3 °F 35.2 °F 30.15 in SSW 2.0 mph 8.0 mph 56% 0.00 in CLR
23:15 50.2 °F 35.5 °F 30.15 in SSW 1.0 mph 8.0 mph 57% 0.00 in CLR
23:30 50.0 °F 35.3 °F 30.15 in SSW 2.0 mph 8.0 mph 57% 0.00 in CLR
23:45 49.9 °F 35.3 °F 30.14 in SSW 2.0 mph 10.0 mph 57% 0.00 in CLR
TarryTown NY Weather
Compliments of Weather Underground - 1.5 mb